首页
METAR-TAF:

METAR-TAF

机场 :

英迪拉·甘地国际机场

新德里, 印度

纬度: 28-34N, 经度: 077-07E, 海拔: 220米

当前天气观测

该预报发布于19分钟前的17:00 UTC
静风
温度 30°C
湿度 59%
气压 1007 hPa
能見度: 4000
散云层高于10000英尺

METAR: VIDP 011700Z 00000KT 4000 HZ SCT100 30/21 Q1007 NOSIG

时间: 22:49 (17:19 UTC)

预报

该预报发布于3小时和19分钟前的14:00 UTC
预报有效从01日的 15点(UTC)到 01日的 24点(UTC)
风速8节,风向东转东南,有时为18节阵风
能見度: 4000
少量云层高于3500英尺
散云层高于10000英尺
短暂存在
从 01日的 18点(UTC)到 01日的 22点(UTC)
风速10节,风向西南,有时为20节阵风
能見度: 2000
散云层高于3000英尺
少量云层高于4000英尺, 积雨云.
多云层高于10000英尺
雷暴, 小雨
成为
从 01日的 23点(UTC)到 01日的 24点(UTC)
风速10节,风向东南
能見度: 2500
少量云层高于4000英尺
散云层高于10000英尺

TAF: VIDP 011400Z 0115/0124 11008G18KT 4000 HZ FEW035 SCT100 TEMPO 0118/0122 22010G20KT 2000 -TSRA SCT030 FEW040CB BKN100 BECMG 0123/0124 14010KT 2500 HZ FEW040 SCT100

超过4000个机场的气象观测和天气预报(METAR&TAF报告)。

可查询的气象台以黄色和红色小点在地图上表示。

将鼠标移到小点上方,可查看气象台名称。

然后点击查看天气观测和预报。

如需切换地图:点击带黑十字的绿色按钮放大地图;点击带横线的绿色按钮缩小地图;或者点击绿色箭头查看邻近地区的地图。


METAR-TAF: